createdAt,value
2023-02-07T00:02:53.344Z,47.80
2023-02-07T00:05:36.874Z,47.80
2023-02-07T00:08:23.297Z,48.00
2023-02-07T00:11:03.382Z,48.30
2023-02-07T00:13:51.286Z,48.30
2023-02-07T00:16:32.370Z,48.50
2023-02-07T00:19:19.323Z,48.50
2023-02-07T00:21:59.349Z,48.50
2023-02-07T00:24:46.307Z,48.50
2023-02-07T00:27:26.357Z,48.40
2023-02-07T00:30:14.302Z,48.40
2023-02-07T00:32:54.385Z,48.30
2023-02-07T00:35:41.296Z,48.10
2023-02-07T00:38:21.383Z,48.40
2023-02-07T00:41:08.291Z,48.40
2023-02-07T00:43:49.449Z,48.10
2023-02-07T00:46:36.315Z,48.10
2023-02-07T00:49:17.346Z,48.40
2023-02-07T00:52:04.312Z,48.30
2023-02-07T00:54:51.313Z,48.10
2023-02-07T00:57:38.400Z,48.10
2023-02-07T01:00:19.315Z,48.40
2023-02-07T01:03:06.387Z,48.20
2023-02-07T01:05:46.297Z,48.30
2023-02-07T01:08:27.100Z,48.00
2023-02-07T01:11:19.326Z,47.80
2023-02-07T01:14:01.131Z,47.90
2023-02-07T01:16:49.321Z,47.90
2023-02-07T01:19:29.813Z,47.80
2023-02-07T01:22:16.326Z,47.80
2023-02-07T01:25:03.401Z,48.00
2023-02-07T01:27:43.317Z,48.20
2023-02-07T01:30:23.922Z,48.30
2023-02-07T01:33:10.310Z,48.40
2023-02-07T01:35:50.850Z,48.40
2023-02-07T01:38:37.309Z,48.40
2023-02-07T01:41:17.805Z,48.40
2023-02-07T01:44:08.323Z,48.40
2023-02-07T01:46:56.317Z,48.10
2023-02-07T01:49:47.315Z,47.90
2023-02-07T01:52:42.393Z,48.00
2023-02-07T01:55:29.319Z,48.00
2023-02-07T01:58:09.988Z,48.10
2023-02-07T02:00:57.292Z,48.00
2023-02-07T02:03:42.899Z,48.10
2023-02-07T02:06:30.302Z,48.10
2023-02-07T02:09:20.311Z,48.00
2023-02-07T02:12:15.350Z,47.90
2023-02-07T02:15:21.309Z,48.30
2023-02-07T02:18:33.289Z,48.30
2023-02-07T02:21:32.332Z,48.30
2023-02-07T02:24:25.505Z,48.30
2023-02-07T02:27:38.317Z,48.30
2023-02-07T02:31:03.444Z,48.30
2023-02-07T02:34:28.332Z,48.30
2023-02-07T02:37:39.290Z,48.40
2023-02-07T02:40:43.396Z,48.10
2023-02-07T02:43:36.335Z,47.90
2023-02-07T02:46:37.376Z,48.00
2023-02-07T02:49:27.316Z,48.20
2023-02-07T02:52:21.304Z,48.00
2023-02-07T02:55:01.828Z,48.20
2023-02-07T02:57:57.324Z,48.10
2023-02-07T03:00:49.156Z,48.30
2023-02-07T03:04:03.308Z,48.30
2023-02-07T03:07:22.355Z,48.30
2023-02-07T03:10:38.385Z,48.30
2023-02-07T03:13:51.335Z,48.30
2023-02-07T03:16:48.316Z,48.30
2023-02-07T03:19:47.338Z,48.30
2023-02-07T03:22:32.374Z,48.30
2023-02-07T03:25:22.482Z,48.30
2023-02-07T03:28:04.419Z,48.20
2023-02-07T03:30:55.346Z,48.30
2023-02-07T03:33:35.376Z,48.10
2023-02-07T03:36:36.314Z,48.00
2023-02-07T03:39:16.384Z,48.00
2023-02-07T03:42:07.310Z,48.10
2023-02-07T03:44:49.391Z,48.10
2023-02-07T03:47:36.331Z,48.20
2023-02-07T03:50:16.366Z,48.20
2023-02-07T03:53:03.321Z,48.10
2023-02-07T03:55:43.380Z,48.20
2023-02-07T03:58:30.306Z,48.20
2023-02-07T04:01:10.443Z,48.00
2023-02-07T04:03:57.304Z,48.00
2023-02-07T04:06:37.426Z,48.00
2023-02-07T04:09:24.319Z,48.00
2023-02-07T04:12:11.351Z,48.10
2023-02-07T04:14:58.319Z,48.00
2023-02-07T04:17:45.300Z,48.00
2023-02-07T04:20:25.806Z,47.90
2023-02-07T04:23:12.302Z,47.80
2023-02-07T04:25:59.325Z,47.60
2023-02-07T04:28:39.382Z,47.60
2023-02-07T04:31:26.359Z,47.60
2023-02-07T04:34:13.340Z,47.60
2023-02-07T04:36:53.788Z,47.60
2023-02-07T04:39:40.314Z,47.50
2023-02-07T04:42:27.346Z,47.50
2023-02-07T04:45:07.305Z,47.20
2023-02-07T04:47:47.810Z,47.40
2023-02-07T04:50:34.284Z,47.50
2023-02-07T04:53:21.300Z,47.40
2023-02-07T04:56:02.449Z,47.40
2023-02-07T04:58:49.329Z,47.40
2023-02-07T05:01:29.424Z,47.40
2023-02-07T05:04:16.336Z,47.50
2023-02-07T05:06:56.379Z,47.60
2023-02-07T05:09:43.314Z,47.50
2023-02-07T05:12:23.389Z,47.60
2023-02-07T05:15:10.306Z,47.40
2023-02-07T05:17:52.284Z,47.30
2023-02-07T05:20:39.313Z,47.40
2023-02-07T05:23:27.310Z,47.40
2023-02-07T05:26:14.315Z,47.40
2023-02-07T05:29:01.306Z,47.30
2023-02-07T05:32:07.092Z,47.20
2023-02-07T05:34:46.307Z,47.10
2023-02-07T05:37:27.497Z,47.10
2023-02-07T05:40:15.309Z,46.90
2023-02-07T05:43:02.453Z,46.60
2023-02-07T05:45:42.313Z,46.40
2023-02-07T05:48:22.801Z,46.20
2023-02-07T05:51:09.310Z,45.90
2023-02-07T05:53:57.364Z,45.70
2023-02-07T05:56:37.313Z,45.50
2023-02-07T05:59:24.379Z,45.40
2023-02-07T06:02:04.288Z,45.10
2023-02-07T06:04:51.451Z,45.00
2023-02-07T06:07:38.289Z,44.90
2023-02-07T06:10:26.301Z,44.60
2023-02-07T06:13:06.835Z,44.50
2023-02-07T06:15:53.326Z,44.20
2023-02-07T06:18:40.296Z,44.20
2023-02-07T06:21:37.574Z,44.00
2023-02-07T06:24:28.304Z,43.90
2023-02-07T06:27:08.356Z,43.80
2023-02-07T06:29:55.315Z,43.70
2023-02-07T06:32:35.361Z,43.40
2023-02-07T06:35:22.312Z,43.40
2023-02-07T06:38:02.364Z,43.10
2023-02-07T06:40:50.305Z,43.00
2023-02-07T06:43:30.361Z,43.00
2023-02-07T06:46:17.320Z,42.90
2023-02-07T06:48:57.376Z,42.60
2023-02-07T06:51:44.307Z,42.60
2023-02-07T06:54:24.419Z,42.50
2023-02-07T06:57:12.306Z,42.40
2023-02-07T06:59:52.463Z,42.20
2023-02-07T07:02:39.346Z,42.30
2023-02-07T07:05:19.366Z,42.40
2023-02-07T07:08:06.316Z,42.30
2023-02-07T07:10:46.366Z,42.10
2023-02-07T07:13:33.293Z,41.90
2023-02-07T07:16:20.417Z,41.50
2023-02-07T07:19:00.821Z,41.50
2023-02-07T07:21:47.330Z,41.40
2023-02-07T07:24:34.708Z,41.20
2023-02-07T07:27:14.318Z,41.20
2023-02-07T07:30:01.376Z,41.10
2023-02-07T07:32:42.305Z,41.10
2023-02-07T07:35:29.862Z,40.90
2023-02-07T07:38:16.696Z,40.60
2023-02-07T07:40:57.236Z,40.50
2023-02-07T07:43:45.703Z,40.80
2023-02-07T07:46:25.926Z,40.70
2023-02-07T07:49:12.307Z,40.30
2023-02-07T07:52:06.301Z,41.30
2023-02-07T07:54:53.303Z,40.20
2023-02-07T07:57:33.452Z,40.10
2023-02-07T08:00:21.312Z,40.10
2023-02-07T08:03:08.315Z,40.00
2023-02-07T08:05:56.441Z,39.90
2023-02-07T08:08:36.303Z,39.90
2023-02-07T08:11:16.862Z,40.00
2023-02-07T08:14:04.314Z,39.90
2023-02-07T08:16:51.309Z,39.80
2023-02-07T08:19:31.411Z,39.50
2023-02-07T08:22:20.311Z,39.50
2023-02-07T08:25:00.393Z,39.30
2023-02-07T08:27:47.340Z,39.10
2023-02-07T08:30:28.417Z,38.90
2023-02-07T08:33:15.309Z,38.70
2023-02-07T08:36:04.309Z,38.70
2023-02-07T08:38:51.325Z,38.10
2023-02-07T08:41:31.369Z,37.60
2023-02-07T08:44:18.299Z,37.50
2023-02-07T08:46:58.361Z,37.30
2023-02-07T08:49:45.309Z,37.20
2023-02-07T08:52:32.319Z,36.90
2023-02-07T08:55:12.933Z,37.00
2023-02-07T08:57:59.309Z,36.90
2023-02-07T09:00:40.152Z,36.80
2023-02-07T09:03:27.293Z,36.40
2023-02-07T09:06:15.322Z,36.60
2023-02-07T09:09:02.308Z,35.60
2023-02-07T09:11:42.696Z,35.20
2023-02-07T09:14:29.357Z,35.10
2023-02-07T09:17:09.520Z,34.40
2023-02-07T09:19:56.335Z,34.20
2023-02-07T09:22:56.426Z,33.50
2023-02-07T09:25:43.542Z,33.40
2023-02-07T09:28:23.615Z,32.80
2023-02-07T09:31:10.450Z,32.70
2023-02-07T09:33:50.834Z,32.20
2023-02-07T09:36:42.298Z,31.60
2023-02-07T09:39:29.487Z,31.10
2023-02-07T09:42:22.377Z,31.90
2023-02-07T09:45:13.464Z,30.40
2023-02-07T09:47:57.367Z,30.50
2023-02-07T09:50:52.328Z,30.00
2023-02-07T09:54:00.382Z,29.80
2023-02-07T09:56:42.339Z,29.50
2023-02-07T09:59:50.336Z,29.40
2023-02-07T10:02:59.318Z,29.00
2023-02-07T10:06:17.901Z,28.90
2023-02-07T10:09:08.301Z,28.70
2023-02-07T10:12:17.314Z,28.50
2023-02-07T10:15:14.242Z,28.30
2023-02-07T10:18:22.331Z,28.10
2023-02-07T10:21:30.718Z,28.00
2023-02-07T10:24:32.356Z,27.80
2023-02-07T10:27:22.618Z,27.80
2023-02-07T10:30:27.402Z,27.70
2023-02-07T10:33:34.317Z,27.50
2023-02-07T10:36:15.702Z,27.70
2023-02-07T10:39:11.311Z,27.50
2023-02-07T10:41:59.271Z,27.40
2023-02-07T10:44:39.330Z,27.10
2023-02-07T10:47:20.692Z,27.10
2023-02-07T10:50:10.513Z,27.00
2023-02-07T10:53:10.316Z,26.90
2023-02-07T10:55:57.338Z,26.80
2023-02-07T10:58:46.391Z,26.80
2023-02-07T11:01:35.400Z,26.60
2023-02-07T11:04:49.386Z,26.70
2023-02-07T11:07:47.470Z,26.80
2023-02-07T11:10:33.255Z,27.20
2023-02-07T11:13:23.322Z,27.10
2023-02-07T11:16:15.448Z,27.00
2023-02-07T11:19:09.326Z,27.10
2023-02-07T11:21:51.526Z,27.10
2023-02-07T11:24:42.349Z,27.20
2023-02-07T11:27:25.393Z,27.10
2023-02-07T11:30:16.355Z,27.10
2023-02-07T11:33:09.389Z,27.10
2023-02-07T11:36:17.332Z,27.20
2023-02-07T11:39:01.388Z,27.20
2023-02-07T11:41:48.362Z,27.30
2023-02-07T11:44:31.463Z,27.20
2023-02-07T11:47:28.360Z,27.20
2023-02-07T11:50:20.348Z,27.20
2023-02-07T11:53:02.104Z,27.20
2023-02-07T11:55:57.378Z,27.30
2023-02-07T11:58:49.617Z,27.30
2023-02-07T12:01:34.407Z,27.40
2023-02-07T12:04:28.341Z,27.30
2023-02-07T12:07:25.725Z,27.50
2023-02-07T12:10:37.355Z,27.60
2023-02-07T12:13:30.452Z,28.40
2023-02-07T12:16:28.378Z,27.60
2023-02-07T12:19:24.401Z,27.70
2023-02-07T12:22:21.407Z,27.70
2023-02-07T12:25:30.064Z,27.80
2023-02-07T12:28:30.429Z,28.00
2023-02-07T12:31:25.384Z,28.20
2023-02-07T12:34:29.358Z,28.40
2023-02-07T12:37:28.422Z,28.20
2023-02-07T12:40:35.380Z,28.20
2023-02-07T12:43:37.892Z,28.10
2023-02-07T12:46:34.375Z,27.90
2023-02-07T12:49:41.486Z,27.80
2023-02-07T12:52:49.366Z,27.70
2023-02-07T12:55:48.354Z,27.50
2023-02-07T12:58:42.358Z,27.40
2023-02-07T13:01:52.383Z,27.50
2023-02-07T13:05:10.267Z,27.40
2023-02-07T13:08:22.372Z,27.40
2023-02-07T13:11:37.584Z,27.40
2023-02-07T13:14:38.377Z,27.30
2023-02-07T13:17:49.340Z,27.30
2023-02-07T13:20:47.366Z,27.40
2023-02-07T13:23:40.350Z,27.40
2023-02-07T13:26:26.233Z,27.50
2023-02-07T13:29:20.354Z,27.40
2023-02-07T13:32:05.459Z,27.40
2023-02-07T13:35:14.365Z,27.40
2023-02-07T13:37:57.398Z,27.40
2023-02-07T13:40:50.345Z,27.40
2023-02-07T13:43:50.910Z,27.40
2023-02-07T13:47:02.371Z,27.40
2023-02-07T13:50:11.366Z,27.30
2023-02-07T13:53:35.357Z,27.20
2023-02-07T13:56:41.374Z,27.20
2023-02-07T13:59:44.473Z,27.10
2023-02-07T14:02:31.375Z,27.10
2023-02-07T14:05:26.450Z,27.00
2023-02-07T14:08:29.359Z,27.00
2023-02-07T14:11:45.363Z,27.00
2023-02-07T14:14:34.460Z,26.90
2023-02-07T14:17:20.385Z,26.90
2023-02-07T14:20:02.942Z,26.80
2023-02-07T14:22:55.350Z,26.70
2023-02-07T14:25:43.602Z,26.80
2023-02-07T14:28:47.340Z,26.90
2023-02-07T14:31:37.470Z,26.70
2023-02-07T14:34:31.360Z,26.60
2023-02-07T14:37:43.353Z,26.60
2023-02-07T14:40:38.647Z,26.50
2023-02-07T14:43:30.497Z,26.60
2023-02-07T14:46:15.413Z,26.50
2023-02-07T14:49:18.362Z,26.70
2023-02-07T14:52:25.380Z,26.70
2023-02-07T14:55:28.414Z,26.80
2023-02-07T14:58:13.369Z,26.90
2023-02-07T15:01:04.451Z,27.00
2023-02-07T15:03:44.397Z,27.00
2023-02-07T15:06:32.822Z,27.10
2023-02-07T15:09:13.384Z,27.20
2023-02-07T15:12:10.519Z,27.30
2023-02-07T15:15:03.372Z,27.40
2023-02-07T15:17:44.825Z,27.40
2023-02-07T15:20:36.390Z,27.50
2023-02-07T15:23:17.340Z,27.60
2023-02-07T15:26:04.356Z,27.70
2023-02-07T15:28:51.455Z,27.70
2023-02-07T15:31:31.483Z,27.90
2023-02-07T15:34:22.451Z,27.90
2023-02-07T15:37:09.374Z,27.80
2023-02-07T15:39:57.424Z,27.90
2023-02-07T15:42:44.376Z,28.00
2023-02-07T15:45:32.718Z,28.90
2023-02-07T15:48:28.362Z,28.20
2023-02-07T15:51:18.600Z,29.00
2023-02-07T15:54:14.371Z,28.30
2023-02-07T15:57:06.430Z,29.20
2023-02-07T15:59:48.729Z,28.40
2023-02-07T16:02:40.453Z,28.50
2023-02-07T16:05:30.380Z,28.40
2023-02-07T16:08:39.402Z,28.40
2023-02-07T16:11:34.493Z,28.50
2023-02-07T16:14:32.394Z,29.30
2023-02-07T16:17:13.007Z,28.60
2023-02-07T16:19:59.375Z,28.70
2023-02-07T16:22:39.461Z,28.70
2023-02-07T16:25:42.396Z,28.80
2023-02-07T16:28:22.518Z,28.90
2023-02-07T16:31:09.496Z,29.00
2023-02-07T16:33:49.472Z,29.10
2023-02-07T16:36:36.387Z,29.20
2023-02-07T16:39:16.432Z,29.30
2023-02-07T16:42:10.395Z,29.40
2023-02-07T16:44:52.428Z,29.50
2023-02-07T16:47:39.400Z,29.60
2023-02-07T16:50:20.489Z,29.70
2023-02-07T16:53:14.380Z,29.70
2023-02-07T16:55:56.763Z,29.80
2023-02-07T16:58:45.373Z,30.70
2023-02-07T17:01:32.408Z,29.90
2023-02-07T17:04:26.402Z,30.00
2023-02-07T17:07:09.303Z,29.90
2023-02-07T17:09:57.385Z,30.00
2023-02-07T17:12:37.950Z,30.00
2023-02-07T17:15:24.389Z,30.00
2023-02-07T17:18:11.391Z,30.20
2023-02-07T17:20:58.383Z,30.30
2023-02-07T17:23:38.528Z,30.20
2023-02-07T17:26:38.416Z,30.30
2023-02-07T17:29:19.836Z,30.30
2023-02-07T17:32:06.408Z,30.40
2023-02-07T17:34:53.442Z,30.50
2023-02-07T17:37:33.383Z,30.50
2023-02-07T17:40:23.010Z,30.80
2023-02-07T17:43:09.375Z,30.90
2023-02-07T17:45:49.953Z,31.00
2023-02-07T17:48:39.382Z,31.10
2023-02-07T17:51:32.472Z,31.20
2023-02-07T17:54:19.377Z,31.30
2023-02-07T17:56:59.430Z,31.40
2023-02-07T17:59:46.391Z,31.40
2023-02-07T18:02:26.463Z,31.50
2023-02-07T18:05:14.442Z,31.70
2023-02-07T18:08:02.384Z,31.80
2023-02-07T18:10:49.372Z,31.90
2023-02-07T18:13:29.438Z,32.00
2023-02-07T18:16:20.388Z,32.00
2023-02-07T18:19:03.629Z,32.20
2023-02-07T18:21:51.385Z,32.30
2023-02-07T18:24:31.458Z,32.30
2023-02-07T18:27:23.396Z,33.40
2023-02-07T18:30:03.459Z,32.50
2023-02-07T18:32:50.395Z,32.50
2023-02-07T18:35:30.419Z,32.60
2023-02-07T18:38:18.390Z,32.50
2023-02-07T18:40:58.456Z,32.60
2023-02-07T18:43:49.597Z,32.70
2023-02-07T18:46:29.718Z,32.60
2023-02-07T18:49:18.362Z,32.70
2023-02-07T18:51:58.437Z,33.80
2023-02-07T18:54:52.376Z,32.60
2023-02-07T18:57:32.988Z,32.70
2023-02-07T19:00:21.388Z,32.70
2023-02-07T19:03:08.615Z,32.60
2023-02-07T19:05:48.417Z,32.60
2023-02-07T19:08:29.246Z,32.60
2023-02-07T19:11:17.380Z,32.60
2023-02-07T19:14:04.391Z,32.60
2023-02-07T19:16:51.400Z,32.60
2023-02-07T19:19:32.762Z,32.70
2023-02-07T19:22:30.104Z,32.70
2023-02-07T19:25:21.507Z,32.50
2023-02-07T19:28:01.405Z,32.50
2023-02-07T19:30:49.525Z,32.60
2023-02-07T19:33:29.375Z,32.50
2023-02-07T19:36:17.481Z,32.60
2023-02-07T19:39:00.386Z,32.60
2023-02-07T19:41:47.486Z,32.50
2023-02-07T19:44:27.396Z,32.60
2023-02-07T19:47:14.448Z,32.60
2023-02-07T19:49:58.406Z,32.50
2023-02-07T19:52:45.381Z,32.60
2023-02-07T19:55:32.429Z,32.60
2023-02-07T19:58:12.387Z,32.70
2023-02-07T20:00:59.371Z,32.70
2023-02-07T20:03:46.456Z,32.80
2023-02-07T20:06:37.386Z,32.80
2023-02-07T20:09:24.389Z,32.60
2023-02-07T20:12:05.179Z,32.70
2023-02-07T20:14:51.391Z,32.60
2023-02-07T20:17:31.881Z,32.60
2023-02-07T20:20:19.393Z,32.70
2023-02-07T20:23:06.412Z,32.70
2023-02-07T20:25:53.393Z,32.80
2023-02-07T20:28:41.410Z,33.00
2023-02-07T20:31:23.606Z,34.00
2023-02-07T20:34:10.388Z,33.00
2023-02-07T20:36:50.464Z,33.10
2023-02-07T20:39:39.403Z,33.00
2023-02-07T20:42:26.398Z,32.90
2023-02-07T20:45:13.463Z,32.90
2023-02-07T20:47:53.418Z,32.80
2023-02-07T20:50:41.807Z,32.80
2023-02-07T20:53:21.438Z,32.80
2023-02-07T20:56:20.406Z,32.80
2023-02-07T20:59:01.461Z,32.70
2023-02-07T21:01:48.399Z,32.70
2023-02-07T21:04:28.540Z,32.80
2023-02-07T21:07:15.416Z,32.70
2023-02-07T21:09:55.517Z,32.80
2023-02-07T21:12:42.380Z,32.80
2023-02-07T21:15:29.404Z,32.90
2023-02-07T21:18:10.075Z,33.00
2023-02-07T21:20:56.407Z,33.10
2023-02-07T21:23:43.397Z,33.10
2023-02-07T21:26:23.601Z,33.20
2023-02-07T21:29:12.405Z,33.30
2023-02-07T21:31:53.667Z,33.30
2023-02-07T21:34:40.397Z,33.40
2023-02-07T21:37:21.321Z,33.50
2023-02-07T21:40:08.420Z,33.50
2023-02-07T21:42:48.517Z,33.50
2023-02-07T21:45:36.412Z,33.60
2023-02-07T21:48:16.443Z,33.80
2023-02-07T21:51:10.387Z,33.80
2023-02-07T21:53:57.414Z,34.00
2023-02-07T21:56:53.386Z,34.00
2023-02-07T21:59:42.458Z,34.10
2023-02-07T22:02:22.484Z,34.20
2023-02-07T22:05:09.438Z,34.30
2023-02-07T22:07:49.402Z,34.50
2023-02-07T22:10:29.873Z,34.50
2023-02-07T22:13:16.394Z,34.70
2023-02-07T22:16:03.459Z,34.80
2023-02-07T22:18:43.390Z,34.90
2023-02-07T22:21:50.596Z,34.90
2023-02-07T22:24:38.395Z,35.00
2023-02-07T22:27:18.890Z,35.20
2023-02-07T22:30:06.400Z,35.40
2023-02-07T22:32:46.911Z,35.40
2023-02-07T22:35:33.390Z,35.40
2023-02-07T22:38:20.468Z,36.50
2023-02-07T22:41:00.404Z,35.70
2023-02-07T22:43:41.365Z,35.70
2023-02-07T22:46:29.430Z,35.80
2023-02-07T22:49:16.446Z,35.80
2023-02-07T22:51:57.414Z,35.90
2023-02-07T22:54:44.798Z,36.00
2023-02-07T22:57:24.373Z,36.20
2023-02-07T23:00:08.443Z,36.30
2023-02-07T23:02:55.400Z,36.40
2023-02-07T23:05:39.482Z,36.50
2023-02-07T23:08:26.390Z,36.60
2023-02-07T23:11:08.021Z,36.70
2023-02-07T23:13:55.395Z,36.80
2023-02-07T23:16:43.448Z,36.70
2023-02-07T23:19:24.385Z,36.70
2023-02-07T23:22:11.437Z,36.80
2023-02-07T23:24:51.415Z,36.80
2023-02-07T23:27:38.393Z,36.70
2023-02-07T23:30:27.411Z,36.90
2023-02-07T23:33:16.412Z,36.80
2023-02-07T23:35:56.445Z,37.00
2023-02-07T23:38:43.408Z,37.30
2023-02-07T23:41:23.450Z,38.40
2023-02-07T23:44:11.406Z,37.40
2023-02-07T23:46:58.403Z,37.40
2023-02-07T23:50:00.416Z,37.40
2023-02-07T23:52:40.925Z,37.50
2023-02-07T23:55:27.396Z,37.50
2023-02-07T23:58:14.465Z,37.60
